Time;durP1;ratioP1;P1;durP2;ratioP2;P2;SDS_P1;SDS_P2;PMS_P1;PMS_P2;Temp;Humidity;BMP_temperature;BMP_pressure;BME280_temperature;BME280_humidity;BME280_pressure;Samples;Min_cycle;Max_cycle;Signal;HPM_P1;HPM_P2
2021/01/30 00:02:19;;;;;;;4.47;1.67;;;9.30;69.40;;;8.11;65.68;97074.59;5035921;28;20560;-69
2021/01/30 00:04:48;;;;;;;3.30;1.50;;;9.20;70.10;;;8.20;65.01;97073.13;5035530;28;20827;-69
2021/01/30 00:07:14;;;;;;;3.87;1.70;;;9.20;69.70;;;8.15;65.00;97068.59;5035755;28;20838;-69
2021/01/30 00:09:41;;;;;;;2.53;1.40;;;9.20;69.70;;;8.23;64.92;97085.03;5035053;28;20472;-69
2021/01/30 00:12:08;;;;;;;3.38;1.38;;;9.20;69.50;;;8.22;64.46;97080.78;5035110;28;20435;-69
2021/01/30 00:14:37;;;;;;;3.15;1.50;;;9.20;69.10;;;8.15;65.16;97094.94;5035321;28;20421;-69
2021/01/30 00:17:06;;;;;;;3.05;1.52;;;9.20;69.40;;;8.09;65.22;97093.28;5035302;28;20510;-69
2021/01/30 00:19:33;;;;;;;3.95;1.70;;;9.20;69.40;;;8.11;64.80;97093.06;5035075;28;20794;-69
2021/01/30 00:22:02;;;;;;;4.60;1.80;;;9.10;69.50;;;8.18;64.30;97101.59;5034000;28;20446;-69
2021/01/30 00:24:29;;;;;;;2.72;1.50;;;9.20;68.70;;;8.08;65.10;97093.53;5035988;28;20411;-68
2021/01/30 00:26:58;;;;;;;5.10;1.60;;;9.20;69.30;;;8.17;64.14;97092.06;5037756;28;20428;-70
2021/01/30 00:29:28;;;;;;;4.78;1.50;;;9.20;68.70;;;8.02;65.22;97090.03;5038065;28;20411;-70
2021/01/30 00:31:54;;;;;;;4.72;1.40;;;9.10;69.20;;;7.98;65.47;97090.72;5036453;28;20415;-70
2021/01/30 00:34:23;;;;;;;2.22;1.30;;;9.10;69.50;;;8.07;64.10;97082.19;5035890;28;20413;-69
2021/01/30 00:36:50;;;;;;;3.47;1.58;;;9.00;68.70;;;8.07;63.99;97084.81;5036686;28;20525;-69
2021/01/30 00:39:16;;;;;;;5.07;1.50;;;9.10;68.30;;;8.02;64.12;97090.03;5036154;28;20406;-70
2021/01/30 00:41:42;;;;;;;4.35;1.40;;;9.10;68.50;;;7.99;63.89;97081.78;5035969;28;20422;-70
2021/01/30 00:44:09;;;;;;;2.50;1.25;;;9.10;68.00;;;7.91;64.30;97085.63;5035549;28;20403;-70
2021/01/30 00:46:35;;;;;;;3.10;1.30;;;9.00;68.40;;;8.01;63.44;97066.53;5035467;28;20430;-69
2021/01/30 00:49:01;;;;;;;2.90;1.25;;;9.00;67.90;;;8.02;63.33;97087.38;5034737;28;20685;-69
2021/01/30 00:51:28;;;;;;;2.15;1.38;;;9.00;67.60;;;7.99;63.42;97087.84;5034955;28;20419;-69
2021/01/30 00:53:54;;;;;;;5.63;1.63;;;9.00;67.60;;;7.98;63.43;97096.78;5034989;28;20414;-69
2021/01/30 00:56:21;;;;;;;3.85;1.40;;;9.00;67.80;;;7.92;63.75;97083.78;5034495;28;20410;-70
2021/01/30 00:58:47;;;;;;;3.03;1.50;;;9.00;67.90;;;7.83;63.97;97085.22;5033384;28;20999;-70
2021/01/30 01:01:13;;;;;;;3.92;1.50;;;8.90;68.20;;;7.81;63.97;97092.59;5032173;28;21641;-69
2021/01/30 01:03:40;;;;;;;4.70;1.40;;;8.90;68.20;;;7.84;63.98;97084.19;5034395;28;20797;-70
2021/01/30 01:06:07;;;;;;;2.30;1.37;;;8.90;68.90;;;7.85;64.08;97088.44;5034009;28;20407;-70
2021/01/30 01:08:33;;;;;;;2.28;1.38;;;8.90;68.20;;;7.77;64.36;97084.34;5035289;28;20634;-69
2021/01/30 01:11:00;;;;;;;3.38;1.40;;;8.90;68.50;;;7.84;64.33;97084.19;5035334;28;20501;-70
2021/01/30 01:13:27;;;;;;;4.53;1.43;;;8.90;68.60;;;7.77;64.51;97089.63;5035846;28;20410;-70
2021/01/30 01:15:53;;;;;;;4.43;1.60;;;8.90;68.70;;;7.72;64.81;97081.66;5018447;28;20418;-70
2021/01/30 01:18:20;;;;;;;4.15;1.40;;;8.80;68.90;;;7.77;64.72;97084.34;5035892;28;20482;-70
2021/01/30 01:20:46;;;;;;;3.50;1.52;;;8.80;69.00;;;7.71;64.68;97086.13;5035558;28;20403;-70
2021/01/30 01:23:12;;;;;;;1.83;1.05;;;8.80;68.70;;;7.64;65.28;97095.22;5035900;28;20793;-70
2021/01/30 01:25:40;;;;;;;2.95;1.38;;;8.80;69.30;;;7.67;65.10;97095.53;5036350;28;20403;-70
2021/01/30 01:28:06;;;;;;;2.75;1.40;;;8.80;69.20;;;7.76;64.72;97091.47;5036239;28;20437;-70
2021/01/30 01:30:32;;;;;;;3.90;1.60;;;8.80;69.40;;;7.68;65.11;97094.50;5037315;28;20773;-70
2021/01/30 01:32:59;;;;;;;4.10;1.40;;;8.80;69.30;;;7.74;65.06;97093.53;5044746;28;20494;-70
2021/01/30 01:35:30;;;;;;;2.65;1.40;;;8.80;69.40;;;7.75;64.96;97089.06;5052321;28;20567;-70
2021/01/30 01:37:57;;;;;;;2.55;1.30;;;8.80;69.20;;;7.70;65.64;97084.53;5035181;28;20442;-70
2021/01/30 01:40:27;;;;;;;2.42;1.50;;;8.80;69.70;;;7.68;65.72;97097.13;5040747;28;20419;-70
2021/01/30 01:43:00;;;;;;;2.85;1.30;;;8.80;69.70;;;7.82;65.20;97094.19;5037447;28;20414;-70
2021/01/30 01:45:26;;;;;;;3.20;1.35;;;8.80;69.50;;;7.88;64.57;97098.50;5019209;28;20468;-70
2021/01/30 01:47:53;;;;;;;3.75;1.40;;;8.90;69.10;;;7.99;64.38;97106.31;5038095;28;20500;-70
2021/01/30 01:50:34;;;;;;;2.65;1.50;;;9.00;68.90;;;8.04;64.42;97087.16;5039954;28;20521;-70
2021/01/30 01:53:09;;;;;;;5.43;1.63;;;9.00;68.70;;;7.88;65.03;97103.78;5050420;28;20414;-70
2021/01/30 01:55:38;;;;;;;4.40;1.60;;;9.00;69.00;;;7.85;65.23;97098.97;5046665;28;20407;-70
2021/01/30 01:58:06;;;;;;;3.95;1.60;;;8.90;69.40;;;7.81;65.37;97097.88;5038606;28;20825;-70
2021/01/30 02:00:32;;;;;;;3.45;1.30;;;8.90;69.50;;;7.76;65.88;97107.28;5038950;28;20428;-70
2021/01/30 02:02:58;;;;;;;2.45;1.20;;;8.90;69.80;;;7.76;65.88;97098.56;5041397;28;20418;-68
2021/01/30 02:05:28;;;;;;;4.10;1.30;;;8.80;70.00;;;7.75;65.79;97104.88;5046633;28;20442;-70
2021/01/30 02:07:59;;;;;;;4.88;1.33;;;8.80;70.00;;;7.74;65.90;97100.66;5055439;28;20497;-69
2021/01/30 02:10:28;;;;;;;2.25;1.10;;;8.90;70.10;;;7.69;66.17;97095.28;5054076;28;20399;-69
2021/01/30 02:13:02;;;;;;;2.85;1.35;;;8.80;70.20;;;7.67;66.52;97095.53;5048879;28;20414;-69
2021/01/30 02:15:30;;;;;;;1.60;1.20;;;8.80;70.50;;;7.66;66.64;97091.31;5023807;28;20414;-69
2021/01/30 02:18:12;;;;;;;3.13;1.27;;;8.80;70.60;;;7.69;66.38;97087.38;5021331;28;20415;-69
2021/01/30 02:21:39;;;;;;;2.72;1.20;;;8.80;70.60;;;7.72;66.39;97086.94;5038507;28;20411;-69
2021/01/30 02:24:56;;;;;;;2.80;1.20;;;8.80;70.60;;;7.76;66.32;97091.47;5038486;28;20414;-69
2021/01/30 02:28:12;;;;;;;3.20;1.20;;;8.80;70.60;;;7.77;66.48;97087.78;5033449;28;20817;-69
2021/01/30 02:31:39;;;;;;;2.75;1.40;;;8.90;70.60;;;7.73;66.60;97084.06;5037589;28;20438;-69
2021/01/30 02:34:48;;;;;;;1.98;1.30;;;8.80;70.70;;;7.70;66.74;97078.44;4944953;29;20418;-69
2021/01/30 02:37:21;;;;;;;2.13;1.17;;;8.80;70.90;;;7.69;67.00;97075.03;4958029;29;20829;-70
2021/01/30 02:39:55;;;;;;;2.20;1.00;;;8.80;71.10;;;7.66;66.94;97078.16;5025859;28;20419;-69
2021/01/30 02:42:28;;;;;;;2.42;1.20;;;8.80;71.10;;;7.66;66.92;97083.41;5038051;28;20417;-69
2021/01/30 02:45:00;;;;;;;1.80;1.17;;;8.80;71.20;;;7.66;67.31;97080.78;5036808;28;20430;-69
2021/01/30 02:47:32;;;;;;;1.13;1.05;;;8.80;71.50;;;7.70;67.30;97087.16;5037771;28;20530;-69
2021/01/30 02:50:05;;;;;;;2.58;1.30;;;8.80;71.50;;;7.67;67.62;97069.19;5036588;28;20411;-69
2021/01/30 02:52:33;;;;;;;2.10;1.10;;;8.80;71.70;;;7.64;67.58;97077.59;5037683;28;20677;-69
2021/01/30 02:55:00;;;;;;;1.90;1.00;;;8.80;71.70;;;7.57;67.81;97079.59;5037219;28;20433;-69
2021/01/30 02:57:29;;;;;;;1.42;1.15;;;8.70;71.90;;;7.54;67.76;97071.34;5037622;28;20801;-69
2021/01/30 03:00:00;;;;;;;1.10;1.00;;;8.70;72.10;;;7.51;68.47;97067.38;5037317;28;20486;-69
2021/01/30 03:02:28;;;;;;;1.40;1.20;;;8.60;72.40;;;7.48;68.70;97064.41;5037673;28;20438;-69
2021/01/30 03:04:58;;;;;;;1.23;1.08;;;8.60;72.70;;;7.46;68.35;97063.84;5036869;28;20803;-69
2021/01/30 03:07:50;;;;;;;1.40;1.00;;;8.60;72.80;;;7.41;68.87;97066.41;5037495;28;20423;-69
2021/01/30 03:10:24;;;;;;;1.85;1.10;;;8.50;72.90;;;7.38;68.61;97055.28;5036057;28;20777;-69
2021/01/30 03:12:58;;;;;;;1.25;1.10;;;8.50;72.80;;;7.37;68.94;97048.44;5037323;28;20450;-69
2021/01/30 03:15:32;;;;;;;2.40;1.05;;;8.50;73.00;;;7.37;68.86;97058.16;5036457;28;20418;-69
2021/01/30 03:18:01;;;;;;;1.20;1.10;;;8.50;73.10;;;7.38;68.86;97054.50;5036685;28;20521;-69
2021/01/30 03:20:30;;;;;;;1.15;1.05;;;8.50;73.00;;;7.53;68.29;97062.63;5019404;28;20419;-69
2021/01/30 03:22:58;;;;;;;1.20;1.10;;;8.60;72.90;;;7.52;68.25;97049.75;5037325;28;20740;-69
2021/01/30 03:25:28;;;;;;;1.25;1.10;;;8.60;72.60;;;7.50;68.27;97041.28;5036730;28;20439;-69
2021/01/30 03:27:58;;;;;;;1.80;0.98;;;8.60;72.50;;;7.49;68.58;97048.38;5036757;28;20443;-69
2021/01/30 03:30:25;;;;;;;3.83;1.20;;;8.60;72.70;;;7.47;68.57;97050.44;5036554;28;20406;-69
2021/01/30 03:32:52;;;;;;;1.33;1.13;;;8.60;72.70;;;7.47;68.31;97055.69;5036597;28;20461;-69
2021/01/30 03:35:20;;;;;;;1.15;1.00;;;8.60;72.70;;;7.47;68.31;97058.34;5036460;28;20414;-69
2021/01/30 03:37:46;;;;;;;1.65;0.98;;;8.60;72.50;;;7.47;68.39;97049.63;5036880;28;20415;-69
2021/01/30 03:40:15;;;;;;;2.90;1.33;;;8.60;72.60;;;7.50;68.20;97051.81;5036545;28;20415;-69
2021/01/30 03:42:41;;;;;;;2.03;1.10;;;8.60;72.40;;;7.49;68.09;97044.94;5036314;28;20430;-70
2021/01/30 03:45:12;;;;;;;2.67;1.00;;;8.60;72.40;;;7.47;67.96;97045.16;5036575;28;20402;-69
2021/01/30 03:47:38;;;;;;;2.30;1.20;;;8.60;72.40;;;7.49;68.04;97045.72;5036270;28;20438;-69
2021/01/30 03:50:08;;;;;;;1.60;1.20;;;8.60;72.40;;;7.49;67.93;97037.84;5035606;28;20480;-70
2021/01/30 03:52:35;;;;;;;2.00;1.00;;;8.60;72.20;;;7.48;67.78;97032.81;5035888;28;20726;-69
2021/01/30 03:55:02;;;;;;;1.30;1.13;;;8.60;72.10;;;7.54;67.52;97034.47;5036438;28;20585;-69
2021/01/30 03:57:29;;;;;;;1.70;1.05;;;8.60;72.10;;;7.57;67.35;97034.81;5035814;28;20407;-69
2021/01/30 03:59:55;;;;;;;1.35;1.25;;;8.70;71.90;;;7.55;67.47;97034.25;5036063;28;20402;-69
2021/01/30 04:02:21;;;;;;;2.30;1.20;;;8.70;71.70;;;7.50;67.65;97036.81;5035559;28;20879;-69
2021/01/30 04:04:47;;;;;;;1.60;1.05;;;8.60;71.70;;;7.47;68.12;97028.56;5036419;28;20473;-69
2021/01/30 04:07:14;;;;;;;1.45;1.00;;;8.60;72.10;;;7.48;67.96;97025.69;5036510;28;20435;-69
2021/01/30 04:09:41;;;;;;;1.40;1.30;;;8.60;72.30;;;7.47;68.07;97016.19;5036066;28;20418;-69
2021/01/30 04:12:08;;;;;;;1.50;1.00;;;8.60;72.20;;;7.45;68.00;97013.00;5036205;28;20453;-69
2021/01/30 04:14:36;;;;;;;1.40;1.20;;;8.60;72.30;;;7.47;67.88;97010.13;5018355;28;20422;-69
2021/01/30 04:17:03;;;;;;;2.40;1.20;;;8.60;72.30;;;7.44;68.13;97008.00;5035442;28;20806;-69
2021/01/30 04:19:29;;;;;;;1.85;1.30;;;8.60;72.20;;;7.43;68.06;97011.66;5035699;28;20427;-69
2021/01/30 04:21:55;;;;;;;3.03;1.20;;;8.50;72.30;;;7.41;68.35;96992.66;5036578;28;20788;-69
2021/01/30 04:24:22;;;;;;;3.47;1.20;;;8.50;72.40;;;7.45;67.97;96996.41;5035666;28;20413;-69
2021/01/30 04:26:49;;;;;;;1.77;1.40;;;8.50;72.20;;;7.39;68.07;96988.44;5035341;28;20434;-69
2021/01/30 04:29:16;;;;;;;3.10;1.30;;;8.50;72.30;;;7.38;68.08;96994.72;5035592;28;20822;-69
2021/01/30 04:31:44;;;;;;;1.42;1.13;;;8.50;72.30;;;7.41;67.91;96990.84;5035670;28;20419;-69
2021/01/30 04:34:10;;;;;;;2.88;1.25;;;8.50;72.20;;;7.42;67.77;96989.81;5034969;28;20752;-69
2021/01/30 04:36:36;;;;;;;5.65;1.40;;;8.50;72.20;;;7.45;67.50;96994.56;5035141;28;20422;-69
2021/01/30 04:39:04;;;;;;;2.90;1.30;;;8.60;71.80;;;7.51;67.16;96987.56;5034968;28;20411;-69
2021/01/30 04:41:43;;;;;;;2.63;1.20;;;8.60;71.60;;;7.48;67.34;96988.84;5035627;28;20414;-69
2021/01/30 04:44:17;;;;;;;4.32;1.50;;;8.60;71.70;;;7.47;67.53;96987.22;5035902;28;20399;-70
2021/01/30 04:47:10;;;;;;;1.97;1.13;;;8.60;71.80;;;7.46;67.66;96983.00;5035823;28;20801;-69
2021/01/30 04:49:47;;;;;;;3.90;1.57;;;8.60;71.90;;;7.54;67.29;96987.88;5035304;28;20423;-69
2021/01/30 04:52:33;;;;;;;3.42;1.42;;;8.60;71.80;;;7.45;67.50;96984.03;5035789;28;20434;-69
2021/01/30 04:55:14;;;;;;;6.22;1.83;;;8.60;72.00;;;7.45;67.66;96978.78;5018076;28;20407;-69
2021/01/30 04:57:55;;;;;;;3.97;1.75;;;8.60;71.90;;;7.50;67.69;96972.81;5035532;28;20419;-69
2021/01/30 05:01:07;;;;;;;9.07;2.10;;;8.50;72.00;;;7.41;67.94;96975.03;5018468;28;20411;-69
2021/01/30 05:04:04;;;;;;;5.97;1.80;;;8.50;72.10;;;7.41;67.87;96969.78;5028754;28;20438;-69
2021/01/30 05:06:48;;;;;;;6.57;1.88;;;8.50;72.10;;;7.37;67.65;96963.38;5035826;28;20484;-69
2021/01/30 05:09:22;;;;;;;8.52;2.17;;;8.50;72.00;;;7.35;67.98;96970.75;5036490;28;20415;-69
2021/01/30 05:12:00;;;;;;;8.10;2.20;;;8.50;72.20;;;7.34;67.60;96959.41;5039687;28;20775;-69
2021/01/30 05:14:34;;;;;;;10.82;2.17;;;8.50;71.90;;;7.39;67.14;96961.31;5038643;28;20753;-68
2021/01/30 05:17:07;;;;;;;8.45;1.88;;;8.50;71.80;;;7.42;67.03;96958.19;5038542;28;20799;-69
2021/01/30 05:19:40;;;;;;;6.82;2.30;;;8.50;71.40;;;7.39;66.99;96963.94;5037978;28;20809;-69
2021/01/30 05:22:12;;;;;;;8.07;2.15;;;8.50;71.20;;;7.49;66.41;96968.56;5037450;28;20440;-69
2021/01/30 05:24:38;;;;;;;8.75;2.40;;;8.60;70.90;;;7.48;66.18;96964.34;5037726;28;20414;-69
2021/01/30 05:27:47;;;;;;;7.75;2.17;;;8.60;70.50;;;7.43;66.59;96957.16;5038605;28;20419;-69
2021/01/30 05:30:18;;;;;;;5.13;1.80;;;8.50;70.70;;;7.39;66.65;96946.31;5038814;28;20415;-69
2021/01/30 05:33:02;;;;;;;7.95;2.00;;;8.50;70.70;;;7.38;66.54;96954.44;5021438;28;20497;-68
2021/01/30 05:35:41;;;;;;;6.18;2.05;;;8.50;70.60;;;7.38;66.31;96949.97;5037437;28;20410;-68
2021/01/30 05:38:17;;;;;;;9.43;2.20;;;8.50;70.60;;;7.46;65.49;96950.59;5054202;28;20455;-69
2021/01/30 05:40:51;;;;;;;8.75;2.13;;;8.60;69.90;;;7.40;65.89;96949.75;5047383;28;20433;-69
2021/01/30 05:43:38;;;;;;;14.13;4.13;;;8.50;70.00;;;7.37;65.91;96937.84;5039543;28;20511;-69
2021/01/30 05:46:07;;;;;;;7.93;2.20;;;8.50;70.20;;;7.37;65.99;96944.94;5038891;28;20463;-69
2021/01/30 05:48:42;;;;;;;6.57;2.17;;;8.50;70.20;;;7.38;65.69;96938.66;5038700;28;20429;-68
2021/01/30 05:51:18;;;;;;;8.13;2.38;;;8.50;70.00;;;7.43;65.66;96940.56;5038664;28;20490;-69
2021/01/30 05:53:45;;;;;;;9.60;2.30;;;8.50;69.70;;;7.39;65.63;96943.69;5021228;28;20456;-69
2021/01/30 05:56:12;;;;;;;11.77;2.38;;;8.50;69.80;;;7.42;65.39;96946.88;5038934;28;20418;-69
2021/01/30 05:58:42;;;;;;;9.73;2.20;;;8.50;69.60;;;7.45;65.15;96936.63;5039173;28;20456;-69
2021/01/30 06:01:25;;;;;;;12.13;2.30;;;8.50;69.30;;;7.41;65.23;96935.53;5038410;28;20903;-69
2021/01/30 06:04:00;;;;;;;10.43;2.58;;;8.50;69.30;;;7.39;64.94;96933.13;5039289;28;20709;-69
2021/01/30 06:06:33;;;;;;;11.00;2.60;;;8.50;69.00;;;7.37;65.36;96937.03;5037923;28;20479;-69
2021/01/30 06:09:04;;;;;;;12.32;3.53;;;8.50;69.40;;;7.35;65.35;96932.03;5039050;28;20937;-69
2021/01/30 06:11:42;;;;;;;8.45;2.50;;;8.50;69.30;;;7.32;65.39;96927.25;5037994;28;20465;-69
2021/01/30 06:14:10;;;;;;;9.70;2.60;;;8.40;69.40;;;7.37;65.09;96931.78;5038840;28;20435;-69
2021/01/30 06:16:43;;;;;;;12.13;2.47;;;8.50;69.20;;;7.39;64.64;96921.81;5038520;28;20519;-69
2021/01/30 06:19:14;;;;;;;10.88;2.83;;;8.50;68.80;;;7.34;64.96;96927.81;5039071;28;20498;-69
2021/01/30 06:21:41;;;;;;;9.70;2.45;;;8.50;68.90;;;7.33;65.04;96920.94;5040033;28;20431;-69
2021/01/30 06:24:10;;;;;;;12.07;2.67;;;8.50;69.10;;;7.38;64.43;96928.09;5044801;28;20434;-70
2021/01/30 06:26:44;;;;;;;10.98;2.50;;;8.50;68.70;;;7.33;64.84;96920.94;5045274;28;20493;-69
2021/01/30 06:29:32;;;;;;;12.75;2.92;;;8.50;68.90;;;7.34;65.07;96916.47;5051121;28;20419;-69
2021/01/30 06:32:21;;;;;;;12.50;2.92;;;8.50;69.10;;;7.36;64.70;96917.03;5052683;28;20442;-69
2021/01/30 06:34:49;;;;;;;12.70;2.55;;;8.50;68.90;;;7.35;64.76;96910.19;5044676;28;20431;-69
2021/01/30 06:37:37;;;;;;;8.47;2.83;;;8.50;68.90;;;7.35;64.80;96912.81;5037321;28;20553;-69
2021/01/30 06:40:13;;;;;;;10.57;2.40;;;8.50;69.00;;;7.36;64.87;96909.94;5036366;28;20491;-69
2021/01/30 06:42:42;;;;;;;7.82;2.53;;;8.50;69.10;;;7.34;64.56;96908.59;5036205;28;20497;-70
2021/01/30 06:45:15;;;;;;;18.45;6.63;;;8.50;68.70;;;7.31;64.87;96907.22;5036159;28;20407;-70
2021/01/30 06:47:47;;;;;;;12.85;3.13;;;8.40;68.90;;;7.34;64.54;96904.13;5038291;28;20522;-69
2021/01/30 06:50:22;;;;;;;13.82;3.33;;;8.40;68.80;;;7.34;64.61;96909.38;5036908;28;20469;-69
2021/01/30 06:52:49;;;;;;;13.23;3.00;;;8.50;68.70;;;7.34;64.63;96916.47;5037911;28;20525;-69
2021/01/30 06:55:16;;;;;;;8.77;2.60;;;8.50;68.80;;;7.34;64.57;96909.38;5039200;28;20418;-69
2021/01/30 06:57:51;;;;;;;14.02;3.30;;;8.50;68.70;;;7.40;64.17;96912.88;5040999;28;20749;-69
2021/01/30 07:00:28;;;;;;;13.93;2.80;;;8.50;68.20;;;7.37;64.50;96908.88;5042752;28;20517;-69
2021/01/30 07:03:11;;;;;;;7.83;2.37;;;8.50;68.50;;;7.37;64.69;96908.09;5048982;28;20817;-70
2021/01/30 07:05:59;;;;;;;14.52;2.88;;;8.50;68.60;;;7.41;64.22;96914.47;5048916;28;20413;-69
2021/01/30 07:08:57;;;;;;;15.97;3.60;;;8.50;68.30;;;7.47;63.71;96908.22;5050051;28;20573;-69
2021/01/30 07:11:50;;;;;;;13.57;3.25;;;8.60;67.90;;;7.48;63.69;96899.28;5046446;28;20434;-69
2021/01/30 07:14:35;;;;;;;10.27;2.67;;;8.60;67.60;;;7.44;64.22;96907.94;5019896;28;20860;-70
2021/01/30 07:17:07;;;;;;;16.23;3.33;;;8.50;68.10;;;7.44;64.02;96900.84;5036674;28;20411;-70
2021/01/30 07:19:58;;;;;;;18.98;3.63;;;8.50;68.10;;;7.40;64.06;96897.06;5036820;28;20514;-69
2021/01/30 07:22:33;;;;;;;11.57;3.20;;;8.50;67.80;;;7.39;64.14;96898.13;5036209;28;20472;-69
2021/01/30 07:25:07;;;;;;;11.63;3.10;;;8.50;68.00;;;7.38;64.22;96896.50;5034847;28;20501;-69
2021/01/30 07:27:39;;;;;;;7.35;2.70;;;8.50;68.20;;;7.39;64.24;96900.75;5018140;28;20663;-70
2021/01/30 07:30:13;;;;;;;16.55;3.92;;;8.50;68.20;;;7.45;63.93;96893.72;5018100;28;20425;-70
2021/01/30 07:32:46;;;;;;;9.93;2.97;;;8.50;67.90;;;7.43;64.19;96888.72;5035446;28;20553;-69
2021/01/30 07:35:21;;;;;;;16.63;4.25;;;8.50;68.20;;;7.42;64.67;96895.00;5017950;28;20480;-69
2021/01/30 07:38:00;;;;;;;12.38;3.30;;;8.50;68.60;;;7.44;64.80;96897.41;5035921;28;20808;-69
2021/01/30 07:40:40;;;;;;;15.32;3.72;;;8.50;68.80;;;7.42;64.82;96889.75;5035813;28;20499;-69
2021/01/30 07:43:14;;;;;;;15.73;3.78;;;8.50;68.80;;;7.42;64.93;96889.75;5036442;28;20430;-70
2021/01/30 07:45:50;;;;;;;14.95;3.30;;;8.50;68.90;;;7.43;64.94;96880.81;5036172;28;20423;-70
2021/01/30 07:48:23;;;;;;;15.55;3.45;;;8.50;68.90;;;7.47;64.59;96881.09;5036402;28;20468;-69
2021/01/30 07:50:54;;;;;;;11.07;2.55;;;8.60;68.90;;;7.47;64.91;96876.63;5036332;28;20407;-71
2021/01/30 07:53:24;;;;;;;11.57;3.25;;;8.60;68.90;;;7.50;64.79;96873.53;5036375;28;20427;-71
2021/01/30 07:56:10;;;;;;;11.43;2.80;;;8.60;68.90;;;7.53;64.62;96872.22;5036607;28;20514;-69
2021/01/30 07:58:50;;;;;;;14.55;3.40;;;8.60;68.70;;;7.54;64.52;96879.88;5018661;28;20994;-69
2021/01/30 08:01:53;;;;;;;10.90;2.78;;;8.60;68.60;;;7.58;64.37;96867.84;5036249;28;20433;-70
2021/01/30 08:04:59;;;;;;;10.60;2.78;;;8.70;68.60;;;7.57;64.31;96863.59;5036195;28;20462;-70
2021/01/30 08:07:41;;;;;;;15.75;3.22;;;8.70;68.30;;;7.61;63.98;96863.91;5035775;28;20437;-71
2021/01/30 08:10:20;;;;;;;14.90;3.55;;;8.70;68.30;;;7.57;64.35;96860.97;5035933;28;20407;-70
2021/01/30 08:13:10;;;;;;;12.07;3.28;;;8.70;68.50;;;7.61;64.33;96848.09;5035153;28;20452;-70
2021/01/30 08:15:43;;;;;;;13.75;3.30;;;8.70;68.50;;;7.63;64.40;96854.72;5015932;28;20423;-71
2021/01/30 08:18:26;;;;;;;12.82;3.47;;;8.70;68.50;;;7.72;63.85;96855.09;5016147;28;20580;-71
2021/01/30 08:21:00;;;;;;;16.57;3.23;;;8.80;68.00;;;7.71;64.25;96854.28;5014959;28;20436;-71
2021/01/30 08:23:44;;;;;;;12.32;3.33;;;8.80;68.50;;;7.69;63.94;96853.72;5016196;28;20411;-71
2021/01/30 08:26:18;;;;;;;17.33;5.80;;;8.80;68.00;;;7.69;64.10;96852.94;5013241;28;20412;-71
2021/01/30 08:28:55;;;;;;;19.90;3.70;;;8.80;68.40;;;7.71;64.27;96851.66;5014164;28;20699;-71
2021/01/30 08:31:43;;;;;;;15.10;3.40;;;8.80;68.30;;;7.72;64.03;96850.63;5013375;28;20421;-71
2021/01/30 08:34:29;;;;;;;9.85;3.05;;;8.80;68.20;;;7.76;64.28;96845.66;5014381;28;20421;-70
2021/01/30 08:36:58;;;;;;;18.55;4.07;;;8.80;68.30;;;7.77;63.84;96840.13;5013429;28;20444;-71
2021/01/30 08:39:29;;;;;;;18.88;4.63;;;8.80;68.00;;;7.80;64.08;96840.69;5013570;28;20710;-71
2021/01/30 08:42:03;;;;;;;16.88;4.22;;;8.90;68.00;;;7.82;63.83;96835.97;5013192;28;20752;-71
2021/01/30 08:44:45;;;;;;;15.20;3.70;;;8.90;67.90;;;7.84;63.89;96842.56;5013616;28;20496;-71
2021/01/30 08:47:20;;;;;;;16.95;3.65;;;8.90;68.00;;;7.85;64.00;96831.00;5013804;28;20485;-71
2021/01/30 08:50:15;;;;;;;12.63;3.72;;;8.90;68.00;;;7.92;63.41;96834.25;5014409;28;20417;-71
2021/01/30 08:52:50;;;;;;;11.45;3.20;;;9.00;67.50;;;7.91;63.76;96837.13;5024061;28;20819;-71
2021/01/30 08:55:47;;;;;;;15.93;3.77;;;9.00;67.90;;;7.90;63.93;96844.22;5022978;28;20872;-71
2021/01/30 08:58:48;;;;;;;15.80;3.60;;;9.00;68.00;;;7.93;64.06;96846.38;5015851;28;20478;-71
2021/01/30 09:01:47;;;;;;;13.45;3.17;;;9.00;68.00;;;7.93;63.84;96842.94;5014350;28;20536;-71
2021/01/30 09:04:58;;;;;;;16.42;3.42;;;9.00;68.00;;;7.94;64.15;96847.16;5011228;28;20429;-71
2021/01/30 09:07:41;;;;;;;16.85;3.70;;;9.00;68.30;;;7.94;63.97;96850.59;5016023;28;20865;-71
2021/01/30 09:10:34;;;;;;;17.73;3.75;;;9.00;68.20;;;7.96;63.96;96838.00;5014853;28;20441;-70
2021/01/30 09:13:05;;;;;;;11.05;2.92;;;9.00;68.00;;;8.01;64.16;96845.13;5014600;28;20464;-71
2021/01/30 09:16:09;;;;;;;15.77;3.75;;;9.00;68.20;;;8.06;63.87;96838.06;5014452;28;20471;-71
2021/01/30 09:19:01;;;;;;;13.30;3.15;;;9.10;68.20;;;8.08;63.78;96833.34;5014128;28;20874;-71
2021/01/30 09:21:56;;;;;;;12.52;3.40;;;9.10;67.90;;;8.10;63.69;96833.13;5014670;28;20416;-71
2021/01/30 09:25:12;;;;;;;19.90;4.15;;;9.20;67.80;;;8.08;63.60;96833.34;5014912;28;20441;-71
2021/01/30 09:27:49;;;;;;;15.55;3.42;;;9.10;67.70;;;8.09;63.32;96820.97;5014418;28;20440;-71
2021/01/30 09:30:38;;;;;;;19.33;3.45;;;9.20;67.50;;;8.10;63.41;96815.47;5015389;28;20478;-71
2021/01/30 09:33:16;;;;;;;11.32;3.20;;;9.10;67.50;;;8.22;63.29;96803.94;5015840;28;20519;-70
2021/01/30 09:35:44;;;;;;;15.40;3.50;;;9.20;67.60;;;8.23;63.12;96810.81;5014531;28;20466;-71
2021/01/30 09:38:23;;;;;;;12.82;3.50;;;9.30;67.10;;;8.25;63.30;96806.91;5014700;28;20989;-70
2021/01/30 09:40:50;;;;;;;16.63;3.33;;;9.30;67.20;;;8.37;62.47;96806.75;5015853;28;20742;-71
2021/01/30 09:43:22;;;;;;;16.77;4.15;;;9.30;66.70;;;8.40;62.06;96817.63;5015813;28;20636;-72
2021/01/30 09:45:52;;;;;;;18.15;4.30;;;9.40;66.40;;;8.36;62.21;96815.72;5015557;28;20409;-72
2021/01/30 09:48:19;;;;;;;16.35;3.72;;;9.40;66.30;;;8.33;62.57;96816.22;5015276;28;20434;-72
2021/01/30 09:50:52;;;;;;;20.27;4.25;;;9.40;66.60;;;8.32;62.61;96812.78;5015311;28;20416;-73
2021/01/30 09:53:27;;;;;;;16.58;3.80;;;9.40;66.50;;;8.45;62.15;96816.84;4997520;28;20420;-72
2021/01/30 09:56:08;;;;;;;17.90;3.58;;;9.40;66.30;;;8.41;61.70;96818.41;5015955;28;20696;-71
2021/01/30 09:58:37;;;;;;;13.45;3.20;;;9.50;66.10;;;8.50;61.85;96815.03;5018354;28;20557;-72
2021/01/30 10:01:11;;;;;;;17.27;3.58;;;9.50;66.10;;;8.41;62.24;96816.56;5017862;28;20481;-72
2021/01/30 10:03:41;;;;;;;18.92;3.78;;;9.50;66.30;;;8.40;62.34;96825.53;5018513;28;20416;-71
2021/01/30 10:06:16;;;;;;;19.02;3.88;;;9.50;66.20;;;8.42;62.58;96812.88;5001914;28;20540;-72
2021/01/30 10:08:44;;;;;;;15.20;3.80;;;9.50;66.60;;;8.47;62.70;96812.13;5018683;28;20461;-71
2021/01/30 10:11:14;;;;;;;17.42;3.90;;;9.50;66.80;;;8.50;62.73;96811.59;5017097;28;20413;-71
2021/01/30 10:13:45;;;;;;;13.07;4.13;;;9.50;66.80;;;8.55;62.79;96814.31;5017870;28;20495;-72
2021/01/30 10:16:17;;;;;;;19.30;4.95;;;9.60;66.90;;;8.61;62.46;96815.13;5018350;28;20802;-71
2021/01/30 10:18:50;;;;;;;13.95;3.53;;;9.60;66.60;;;8.62;62.51;96804.34;5018874;28;20484;-71
2021/01/30 10:21:29;;;;;;;17.17;3.53;;;9.60;66.60;;;8.68;62.69;96794.59;5018913;28;20840;-71
2021/01/30 10:23:56;;;;;;;17.67;4.50;;;9.70;66.90;;;8.66;63.41;96799.34;5018380;28;20867;-71
2021/01/30 10:26:24;;;;;;;13.15;3.17;;;9.70;67.20;;;8.68;63.54;96797.25;5018102;28;20417;-71
2021/01/30 10:28:55;;;;;;;15.93;3.53;;;9.70;67.40;;;8.68;63.48;96794.59;5017670;28;20891;-72
2021/01/30 10:31:29;;;;;;;14.18;3.80;;;9.70;67.50;;;8.59;64.12;96793.47;5020866;28;20418;-73
2021/01/30 10:34:03;;;;;;;16.17;4.03;;;9.70;68.00;;;8.63;64.16;96789.31;5039458;28;20448;-72
2021/01/30 10:36:33;;;;;;;18.30;4.00;;;9.60;68.10;;;8.56;64.37;96783.44;5040155;28;20426;-72
2021/01/30 10:39:01;;;;;;;17.75;4.20;;;9.60;68.20;;;8.78;64.43;96781.50;5036516;28;20951;-72
2021/01/30 10:41:29;;;;;;;14.32;3.30;;;9.60;68.80;;;8.70;64.08;96784.59;5035439;28;20481;-72
2021/01/30 10:44:00;;;;;;;10.93;3.10;;;9.70;68.10;;;8.67;64.43;96785.91;5036472;28;20417;-72
2021/01/30 10:46:34;;;;;;;14.77;4.25;;;9.70;68.60;;;8.66;64.69;96779.03;5038107;28;20455;-72
2021/01/30 10:49:07;;;;;;;16.52;3.72;;;9.70;68.80;;;8.76;64.64;96779.09;5040807;28;20891;-73
2021/01/30 10:51:36;;;;;;;15.32;3.85;;;9.70;68.90;;;8.91;64.35;96773.13;5043040;28;20480;-72
2021/01/30 10:54:23;;;;;;;12.75;3.92;;;9.80;69.10;;;8.80;64.67;96780.19;5044179;28;20771;-71
2021/01/30 10:57:21;;;;;;;10.82;3.10;;;9.80;68.90;;;8.74;65.22;96768.00;5044527;28;20454;-72
2021/01/30 10:59:52;;;;;;;12.95;2.97;;;9.70;69.30;;;8.70;65.41;96776.69;5038878;28;20951;-72
2021/01/30 11:02:40;;;;;;;15.38;3.33;;;9.70;69.50;;;8.70;65.86;96771.41;5044158;28;20475;-71
2021/01/30 11:05:27;;;;;;;14.45;3.50;;;9.70;69.80;;;8.71;66.05;96773.81;5048413;28;20419;-71